Time;durP1;ratioP1;P1;durP2;ratioP2;P2;SDS_P1;SDS_P2;PMS_P1;PMS_P2;Temp;Humidity;BMP_temperature;BMP_pressure;BME280_temperature;BME280_humidity;BME280_pressure;Samples;Min_cycle;Max_cycle;Signal;HPM_P1;HPM_P2
2023/09/18 00:00:49;;;;;;;5.37;2.50;;;;;;;22.38;94.20;99020.84;12186957;19;20628;-82
2023/09/18 00:04:54;;;;;;;3.67;2.22;;;;;;;22.33;93.99;99029.47;12213335;19;20027;-82
2023/09/18 00:08:56;;;;;;;7.20;2.75;;;;;;;22.34;93.84;99019.91;12208128;19;20020;-82
2023/09/18 00:12:58;;;;;;;10.05;3.08;;;;;;;22.37;92.96;99024.81;12189447;19;20392;-82
2023/09/18 00:17:00;;;;;;;5.27;2.30;;;;;;;22.36;93.06;99005.50;12211759;19;20018;-81
2023/09/18 00:21:03;;;;;;;;;;;;;;;22.35;93.29;99003.88;12209590;19;20014;-83
2023/09/18 00:25:05;;;;;;;8.50;2.88;;;;;;;22.36;93.28;99005.50;12185729;19;20251;-82
2023/09/18 00:29:09;;;;;;;6.35;2.78;;;;;;;22.37;94.07;99002.38;12197488;19;20014;-82
2023/09/18 00:33:15;;;;;;;6.68;3.00;;;;;;;22.33;95.36;99004.22;12186082;19;20468;-82
2023/09/18 00:37:19;;;;;;;5.95;3.10;;;;;;;22.32;96.63;98993.34;12205304;19;20022;-83
2023/09/18 00:41:21;;;;;;;7.75;2.80;;;;;;;22.29;96.15;98984.44;12200931;19;20025;-82
2023/09/18 00:45:24;;;;;;;;;;;;;;;22.26;97.15;98971.13;12182274;19;20004;-82
2023/09/18 00:49:27;;;;;;;8.47;3.20;;;;;;;22.25;96.39;98966.69;12204588;19;19915;-83
2023/09/18 00:53:30;;;;;;;7.35;3.00;;;;;;;22.18;97.52;98952.38;12206941;19;20243;-82
2023/09/18 00:57:32;;;;;;;6.88;3.50;;;;;;;22.07;99.45;98952.00;12183492;19;20010;-82
2023/09/18 01:01:33;;;;;;;9.60;3.40;;;;;;;21.99;100.00;98933.28;12200243;19;20023;-82
2023/09/18 01:05:35;;;;;;;10.52;2.85;;;;;;;21.91;100.00;98930.56;12205432;19;20002;-81
2023/09/18 01:09:38;;;;;;;6.30;2.80;;;;;;;21.85;100.00;98932.75;12182721;19;20011;-82
2023/09/18 01:14:14;;;;;;;5.13;3.00;;;;;;;21.79;100.00;98934.97;12213771;19;20010;-81
2023/09/18 01:18:18;;;;;;;5.90;3.35;;;;;;;21.78;100.00;98938.13;12198419;19;20014;-83
2023/09/18 01:22:22;;;;;;;9.73;3.05;;;;;;;21.74;100.00;98935.16;12216267;19;20026;-83
2023/09/18 01:26:26;;;;;;;6.18;3.53;;;;;;;21.70;100.00;98934.25;12207052;19;20081;-83
2023/09/18 01:30:28;;;;;;;7.43;3.13;;;;;;;21.73;100.00;98941.97;12185899;19;20011;-82
2023/09/18 01:34:35;;;;;;;6.77;2.80;;;;;;;21.76;100.00;98932.84;12206957;19;20251;-84
2023/09/18 01:38:38;;;;;;;5.22;3.10;;;;;;;21.78;100.00;98935.31;12205648;19;20007;-83
2023/09/18 01:42:43;;;;;;;5.18;2.95;;;;;;;21.83;100.00;98929.47;12184894;19;20007;-82
2023/09/18 01:46:49;;;;;;;7.15;3.00;;;;;;;21.85;100.00;98925.16;12207276;19;20010;-82
2023/09/18 01:50:51;;;;;;;6.43;3.00;;;;;;;21.95;100.00;98943.56;12204748;19;20023;-82
2023/09/18 01:54:53;;;;;;;7.22;3.08;;;;;;;22.00;100.00;99002.22;12199344;19;20007;-82
2023/09/18 01:58:56;;;;;;;7.65;3.60;;;;;;;22.03;100.00;98962.25;12223925;19;20830;-83
2023/09/18 02:02:58;;;;;;;;;;;;;;;21.86;100.00;98942.81;12226370;19;20011;-84
2023/09/18 02:07:18;;;;;;;6.15;4.07;;;;;;;21.63;100.00;99008.88;12202138;19;19914;-83
2023/09/18 02:11:21;;;;;;;17.63;5.95;;;;;;;21.32;100.00;99148.19;12225743;19;20367;-85
2023/09/18 02:15:23;;;;;;;18.95;7.35;;;;;;;20.93;100.00;99154.94;12201541;19;20087;-82
2023/09/18 02:19:26;;;;;;;14.48;7.72;;;;;;;20.31;100.00;99142.19;12223858;19;20022;-81
2023/09/18 02:23:28;;;;;;;19.60;8.98;;;;;;;20.06;100.00;99087.13;12216024;19;20019;-79
2023/09/18 02:27:30;;;;;;;24.77;10.73;;;;;;;19.95;100.00;99048.31;12195657;19;20014;-80
2023/09/18 02:31:35;;;;;;;27.70;12.07;;;;;;;19.91;100.00;99040.91;12216727;19;21123;-82
2023/09/18 02:35:37;;;;;;;28.10;11.17;;;;;;;19.94;100.00;99046.66;12218357;19;20009;-82
2023/09/18 02:39:40;;;;;;;27.27;11.83;;;;;;;19.93;100.00;99033.84;12197539;19;20015;-80
2023/09/18 02:43:43;;;;;;;26.92;10.05;;;;;;;19.87;100.00;99018.41;12220682;19;20042;-80
2023/09/18 02:47:45;;;;;;;25.98;9.98;;;;;;;19.77;100.00;99013.94;12223546;19;20015;-80
2023/09/18 02:51:48;;;;;;;19.73;8.90;;;;;;;19.66;100.00;99006.22;12200203;19;20069;-81
2023/09/18 02:55:53;;;;;;;17.85;7.40;;;;;;;19.62;100.00;99008.03;12221980;19;20018;-81
2023/09/18 02:59:56;;;;;;;19.20;8.20;;;;;;;19.57;100.00;99000.59;12222034;19;20058;-80
2023/09/18 03:03:59;;;;;;;18.05;8.05;;;;;;;19.54;100.00;98982.56;12198842;19;19998;-81
2023/09/18 03:08:01;;;;;;;18.57;8.20;;;;;;;19.53;100.00;98972.50;12209987;19;20536;-81
2023/09/18 03:12:03;;;;;;;18.63;7.95;;;;;;;19.52;100.00;98947.72;12211829;19;20266;-81
2023/09/18 03:16:06;;;;;;;22.80;7.65;;;;;;;19.55;100.00;98935.88;12187898;19;20006;-80
2023/09/18 03:20:09;;;;;;;19.25;7.22;;;;;;;19.61;100.00;98939.31;12207155;19;20010;-80
2023/09/18 03:24:12;;;;;;;17.88;7.50;;;;;;;19.63;100.00;98935.03;12185497;19;20011;-79
2023/09/18 03:28:15;;;;;;;21.98;8.65;;;;;;;19.69;100.00;98932.91;12205282;19;20014;-79
2023/09/18 03:32:19;;;;;;;21.70;9.02;;;;;;;19.74;100.00;98936.34;12201053;19;20018;-80
2023/09/18 03:36:23;;;;;;;22.40;7.82;;;;;;;19.78;100.00;98925.31;12183963;19;20015;-80
2023/09/18 03:40:25;;;;;;;26.37;8.20;;;;;;;19.80;100.00;98937.00;12205752;19;20015;-80
2023/09/18 03:44:27;;;;;;;24.50;8.20;;;;;;;19.79;100.00;98941.78;12208979;19;20260;-80
2023/09/18 03:48:36;;;;;;;20.95;7.75;;;;;;;19.83;100.00;98947.50;12182441;19;20018;-78
2023/09/18 03:52:39;;;;;;;23.35;8.70;;;;;;;19.82;100.00;98937.50;12202024;19;20003;-79
2023/09/18 03:56:41;;;;;;;;;;;;;;;19.84;100.00;98935.19;12203576;19;20095;-79
2023/09/18 04:00:44;;;;;;;19.60;7.63;;;;;;;19.79;100.00;98930.59;12182030;19;19911;-79
2023/09/18 04:04:45;;;;;;;18.97;8.07;;;;;;;19.78;100.00;98939.28;12204410;19;20014;-79
2023/09/18 04:08:48;;;;;;;14.23;6.45;;;;;;;19.80;100.00;98942.59;12204869;19;21682;-79
2023/09/18 04:12:51;;;;;;;17.10;6.85;;;;;;;19.84;100.00;98963.16;12179722;19;20078;-80
2023/09/18 04:16:53;;;;;;;14.68;5.68;;;;;;;19.88;100.00;98964.13;12199091;19;20014;-80
2023/09/18 04:20:55;;;;;;;;;;;;;;;19.90;100.00;98964.63;12197307;19;20484;-79
2023/09/18 04:24:57;;;;;;;15.18;6.45;;;;;;;19.93;100.00;98969.53;12180556;19;19922;-79
2023/09/18 04:29:00;;;;;;;13.57;5.03;;;;;;;19.91;100.00;98971.84;12196228;19;20027;-79
2023/09/18 04:33:07;;;;;;;10.10;4.00;;;;;;;19.96;100.00;98968.88;12178173;19;20009;-78
2023/09/18 04:37:10;;;;;;;8.50;4.53;;;;;;;20.01;100.00;98971.47;12201421;19;20113;-80
2023/09/18 04:41:12;;;;;;;7.93;3.92;;;;;;;20.05;100.00;98963.25;12201550;19;20042;-80
2023/09/18 04:45:16;;;;;;;10.93;4.30;;;;;;;20.13;100.00;98939.19;12178602;19;20006;-80
2023/09/18 04:49:18;;;;;;;11.77;4.88;;;;;;;20.10;100.00;98911.91;12201352;19;20039;-80
2023/09/18 04:53:21;;;;;;;12.63;3.97;;;;;;;20.10;100.00;98918.31;12201650;19;20013;-79
2023/09/18 04:57:23;;;;;;;14.20;4.57;;;;;;;20.12;100.00;98902.03;12172650;19;20083;-79
2023/09/18 05:01:25;;;;;;;9.23;4.03;;;;;;;20.12;100.00;98904.81;12196182;19;20030;-82
2023/09/18 05:05:30;;;;;;;14.93;4.60;;;;;;;20.07;100.00;98905.00;12199207;19;20010;-81
2023/09/18 05:09:34;;;;;;;;;;;;;;;20.02;100.00;98894.03;12178417;19;20002;-81
2023/09/18 05:13:37;;;;;;;10.48;3.17;;;;;;;20.00;100.00;98913.09;12201143;19;20277;-82
2023/09/18 05:17:51;;;;;;;12.30;4.25;;;;;;;19.98;100.00;98921.00;12196114;19;20011;-80
2023/09/18 05:21:54;;;;;;;12.60;4.40;;;;;;;19.97;100.00;98956.53;12173932;19;20019;-80
2023/09/18 05:25:56;;;;;;;13.57;4.40;;;;;;;20.00;100.00;98947.47;12193454;19;20110;-81
2023/09/18 05:29:58;;;;;;;14.10;4.55;;;;;;;20.08;100.00;98939.38;12194090;19;20522;-81
2023/09/18 05:34:00;;;;;;;14.00;4.07;;;;;;;20.08;100.00;98965.38;12171458;19;20054;-80
2023/09/18 05:38:03;;;;;;;9.85;3.80;;;;;;;20.17;100.00;98993.34;12196599;19;20311;-80
2023/09/18 05:42:06;;;;;;;11.80;5.18;;;;;;;20.21;100.00;99013.88;12167903;19;20025;-81
2023/09/18 05:46:10;;;;;;;10.35;3.90;;;;;;;20.19;100.00;99021.78;12192323;19;20058;-82
2023/09/18 05:50:14;;;;;;;14.93;4.18;;;;;;;20.21;100.00;99011.91;12193239;19;20018;-81
2023/09/18 05:54:17;;;;;;;9.82;4.25;;;;;;;20.22;100.00;99009.91;12171875;19;20438;-82
2023/09/18 05:58:24;;;;;;;12.68;3.83;;;;;;;20.28;100.00;99002.97;12194790;19;20072;-81
2023/09/18 06:02:26;;;;;;;9.93;3.63;;;;;;;20.23;100.00;98984.41;12192391;19;20006;-83
2023/09/18 06:06:30;;;;;;;9.30;3.72;;;;;;;20.26;100.00;98999.72;12172455;19;20500;-82
2023/09/18 06:10:32;;;;;;;10.23;4.30;;;;;;;20.25;100.00;98993.28;12192808;19;20014;-83
2023/09/18 06:14:34;;;;;;;12.57;4.50;;;;;;;20.29;100.00;98959.06;12184220;19;20007;-82
2023/09/18 06:18:38;;;;;;;10.75;3.63;;;;;;;20.34;100.00;98956.88;12157819;19;20014;-83
2023/09/18 06:22:40;;;;;;;13.80;4.18;;;;;;;20.38;100.00;98971.03;12184235;19;20022;-83
2023/09/18 06:26:42;;;;;;;9.23;3.05;;;;;;;20.44;100.00;98978.91;12171848;19;20007;-83
2023/09/18 06:30:45;;;;;;;8.68;3.30;;;;;;;20.53;100.00;98986.50;12167853;19;20042;-84
2023/09/18 06:34:47;;;;;;;11.20;3.23;;;;;;;20.55;100.00;98989.75;12186919;19;20010;-83
2023/09/18 06:38:49;;;;;;;10.65;3.08;;;;;;;20.57;100.00;98998.63;12193235;19;20015;-83
2023/09/18 06:42:58;;;;;;;10.45;2.83;;;;;;;20.79;100.00;98989.97;12180854;19;20013;-82
2023/09/18 06:47:00;;;;;;;9.65;3.05;;;;;;;20.94;100.00;99017.41;12198544;19;20006;-84
2023/09/18 06:51:02;;;;;;;10.83;2.83;;;;;;;21.06;100.00;99032.63;12204626;19;20051;-83
2023/09/18 06:55:05;;;;;;;9.25;2.50;;;;;;;21.17;100.00;99064.69;12188452;19;20082;-82
2023/09/18 06:59:07;;;;;;;8.85;3.20;;;;;;;21.25;100.00;99052.63;12207069;19;20509;-84
2023/09/18 07:03:09;;;;;;;6.63;3.00;;;;;;;21.17;100.00;99039.50;12182939;19;20022;-83
2023/09/18 07:07:13;;;;;;;10.73;3.30;;;;;;;21.25;100.00;99046.22;12209078;19;20017;-83
2023/09/18 07:11:17;;;;;;;9.05;3.00;;;;;;;21.31;100.00;99042.84;12208806;19;20010;-83
2023/09/18 07:15:19;;;;;;;;;;;;;;;21.36;100.00;99039.91;12190700;19;20018;-84
2023/09/18 07:19:21;;;;;;;9.90;2.77;;;;;;;21.42;100.00;99042.47;12218771;19;19938;-83
2023/09/18 07:23:23;;;;;;;10.57;3.40;;;;;;;21.45;100.00;99062.25;12211119;19;20033;-83
2023/09/18 07:27:25;;;;;;;7.50;3.50;;;;;;;21.42;100.00;99056.50;12194705;19;20842;-83
2023/09/18 07:31:27;;;;;;;8.85;3.05;;;;;;;21.54;100.00;99051.00;12215976;19;20504;-84
2023/09/18 07:35:29;;;;;;;13.03;3.20;;;;;;;21.59;100.00;99062.81;12212342;19;20733;-83
2023/09/18 07:39:31;;;;;;;8.90;3.20;;;;;;;21.71;100.00;99056.44;12198704;19;20010;-83
2023/09/18 07:43:33;;;;;;;;;;;;;;;21.69;100.00;99077.59;12220821;19;19998;-83
2023/09/18 07:47:35;;;;;;;8.63;3.50;;;;;;;21.89;100.00;99075.91;12223616;19;20315;-84
2023/09/18 07:51:37;;;;;;;9.57;2.45;;;;;;;22.00;100.00;99066.75;12194243;19;20003;-81
2023/09/18 07:55:39;;;;;;;6.17;2.60;;;;;;;22.07;100.00;99074.59;12216674;19;20014;-84
2023/09/18 07:59:42;;;;;;;7.93;3.17;;;;;;;22.19;100.00;99068.25;12215792;19;20007;-83
2023/09/18 08:03:44;;;;;;;13.93;3.00;;;;;;;22.25;100.00;99066.88;12200677;19;20015;-82
2023/09/18 08:07:47;;;;;;;6.28;2.30;;;;;;;22.33;100.00;99081.97;12212811;19;20126;-86
2023/09/18 08:11:49;;;;;;;8.13;2.55;;;;;;;22.37;100.00;99077.31;12205667;19;20010;-84
2023/09/18 08:15:52;;;;;;;9.18;2.63;;;;;;;22.52;100.00;99091.53;12186652;19;20030;-85
2023/09/18 08:19:55;;;;;;;6.28;2.10;;;;;;;22.61;100.00;99073.75;12203873;19;20022;-83
2023/09/18 08:23:58;;;;;;;8.50;1.80;;;;;;;22.66;100.00;99077.13;12205517;19;20010;-85
2023/09/18 08:28:03;;;;;;;6.78;1.98;;;;;;;22.70;100.00;99083.72;12185753;19;20275;-84
2023/09/18 08:32:09;;;;;;;10.07;2.17;;;;;;;22.77;100.00;99082.31;12204266;19;20035;-84
2023/09/18 08:36:29;;;;;;;6.57;1.90;;;;;;;22.89;100.00;99071.09;12181424;19;20019;-82
2023/09/18 08:40:32;;;;;;;10.35;1.95;;;;;;;22.99;100.00;99070.66;12203509;19;20074;-85
2023/09/18 08:44:38;;;;;;;8.23;1.77;;;;;;;23.01;100.00;99059.06;12210037;19;20015;-83
2023/09/18 08:48:41;;;;;;;5.63;1.77;;;;;;;23.04;100.00;99058.38;12184153;19;20003;-82
2023/09/18 08:52:43;;;;;;;5.30;1.75;;;;;;;23.18;100.00;99054.03;12204329;19;20018;-84
2023/09/18 08:56:46;;;;;;;9.38;3.08;;;;;;;23.20;100.00;99040.47;12184715;19;20023;-83
2023/09/18 09:00:49;;;;;;;;;;;;;;;23.19;100.00;99044.41;12187760;19;20411;-82
2023/09/18 09:04:52;;;;;;;7.13;1.50;;;;;;;23.31;100.00;99028.72;12202080;19;19922;-83
2023/09/18 09:08:55;;;;;;;6.05;1.75;;;;;;;23.43;100.00;99025.88;12206967;19;20011;-83
2023/09/18 09:12:58;;;;;;;5.80;1.50;;;;;;;23.45;100.00;99042.41;12180946;19;20003;-82
2023/09/18 09:17:00;;;;;;;8.80;2.08;;;;;;;23.39;100.00;99055.88;12206823;19;20485;-81
2023/09/18 09:21:04;;;;;;;7.70;1.80;;;;;;;23.34;100.00;99061.75;12207182;19;20781;-84
2023/09/18 09:25:23;;;;;;;5.65;2.03;;;;;;;23.38;100.00;99051.41;12184440;19;20007;-82
2023/09/18 09:29:25;;;;;;;6.60;1.60;;;;;;;23.55;100.00;99045.53;12204348;19;20376;-82
2023/09/18 09:33:27;;;;;;;8.50;1.92;;;;;;;23.59;100.00;99060.53;12183187;19;20013;-84
2023/09/18 09:37:34;;;;;;;6.70;1.92;;;;;;;23.52;100.00;99082.78;12201941;19;20030;-83
2023/09/18 09:41:36;;;;;;;5.78;1.75;;;;;;;23.52;100.00;99093.22;12201799;19;20089;-83
2023/09/18 09:45:42;;;;;;;7.80;2.30;;;;;;;23.48;100.00;99090.31;12188541;19;20010;-82
2023/09/18 09:49:47;;;;;;;6.88;1.90;;;;;;;23.55;100.00;99082.09;12202231;19;20038;-83
2023/09/18 09:53:51;;;;;;;7.13;1.98;;;;;;;23.55;100.00;99084.09;12201332;19;20003;-82
2023/09/18 09:57:59;;;;;;;7.00;1.77;;;;;;;23.65;100.00;99100.50;12153220;19;20090;-82
2023/09/18 10:02:09;;;;;;;6.20;1.90;;;;;;;23.71;100.00;99092.63;12200497;19;20027;-84
2023/09/18 10:06:13;;;;;;;6.75;1.70;;;;;;;23.73;100.00;99095.91;12181543;19;20006;-83
2023/09/18 10:10:15;;;;;;;7.95;2.03;;;;;;;23.65;100.00;99108.94;12207810;19;20003;-83
2023/09/18 10:14:29;;;;;;;5.38;1.75;;;;;;;23.52;100.00;99096.84;12207215;19;19998;-82
2023/09/18 10:18:57;;;;;;;2.78;1.73;;;;;;;23.43;100.00;99101.78;12197093;19;20007;-82
2023/09/18 10:23:02;;;;;;;4.53;1.95;;;;;;;23.40;100.00;99108.13;12213200;19;20698;-82
2023/09/18 10:27:06;;;;;;;8.85;1.58;;;;;;;23.51;100.00;99095.22;12210310;19;20374;-82
2023/09/18 10:31:11;;;;;;;6.05;1.70;;;;;;;23.77;100.00;99088.44;12185175;19;20006;-82
2023/09/18 10:35:15;;;;;;;5.30;1.75;;;;;;;24.03;100.00;99088.78;12209723;19;20003;-86
2023/09/18 10:39:19;;;;;;;6.45;1.65;;;;;;;24.15;98.02;99095.53;12183696;19;20019;-84
2023/09/18 10:43:21;;;;;;;6.95;1.63;;;;;;;24.27;97.13;99082.25;12208002;19;20530;-83
2023/09/18 10:47:24;;;;;;;7.40;1.75;;;;;;;24.49;98.18;99082.88;12215687;19;20003;-83
2023/09/18 10:51:27;;;;;;;7.78;1.48;;;;;;;24.54;96.99;99079.81;12188257;19;20751;-81
2023/09/18 10:55:29;;;;;;;3.95;1.73;;;;;;;24.70;96.44;99088.25;12214136;19;20006;-82
2023/09/18 10:59:31;;;;;;;5.15;1.60;;;;;;;24.82;94.01;99101.47;12216099;19;20007;-82
2023/09/18 11:03:34;;;;;;;7.20;1.55;;;;;;;24.84;93.31;99091.47;12208173;19;20019;-86
2023/09/18 11:07:36;;;;;;;2.70;1.27;;;;;;;25.04;92.26;99091.53;12247389;19;20510;-81
2023/09/18 11:11:38;;;;;;;6.32;2.03;;;;;;;25.23;90.71;99102.94;12233926;19;20006;-80
2023/09/18 11:15:42;;;;;;;;;;;;;;;25.36;90.55;99096.00;12194178;19;20015;-81
2023/09/18 11:19:44;;;;;;;3.53;1.90;;;;;;;25.65;86.85;99094.66;12215533;19;19970;-81
2023/09/18 11:23:58;;;;;;;5.85;2.20;;;;;;;25.93;86.07;99102.16;12212067;19;20062;-83
2023/09/18 11:28:02;;;;;;;5.93;1.60;;;;;;;26.20;85.39;99097.47;12189252;19;20002;-84
2023/09/18 11:32:05;;;;;;;10.57;2.10;;;;;;;26.30;82.20;99090.44;12214841;19;20006;-84
2023/09/18 11:36:29;;;;;;;7.47;1.83;;;;;;;26.56;81.09;99098.22;12242139;19;20014;-84
2023/09/18 11:40:34;;;;;;;4.80;1.70;;;;;;;26.93;79.80;99087.19;12207755;19;20014;-82
2023/09/18 11:44:40;;;;;;;4.40;1.50;;;;;;;26.67;77.92;99101.25;12233007;19;20014;-83
2023/09/18 11:48:43;;;;;;;6.03;2.53;;;;;;;26.57;79.66;99099.88;12195461;19;20051;-83
2023/09/18 11:52:45;;;;;;;5.88;1.50;;;;;;;26.44;79.70;99087.88;12208505;19;20006;-82
2023/09/18 11:56:47;;;;;;;;;;;;;;;26.33;81.88;99086.84;12208528;19;20018;-82
2023/09/18 12:00:50;;;;;;;3.83;1.98;;;;;;;26.94;80.50;99083.16;12186083;19;19922;-82
2023/09/18 12:04:56;;;;;;;4.97;1.75;;;;;;;27.95;76.39;99072.22;12207722;19;20483;-83
2023/09/18 12:08:58;;;;;;;6.15;2.03;;;;;;;28.73;70.13;99070.69;12206823;19;20013;-83
2023/09/18 12:13:00;;;;;;;5.30;1.80;;;;;;;29.21;66.49;99084.91;12183581;19;20006;-83
2023/09/18 12:17:03;;;;;;;4.13;1.70;;;;;;;28.95;65.59;99069.69;12209524;19;20010;-83
2023/09/18 12:21:07;;;;;;;6.03;2.08;;;;;;;28.39;66.69;99090.56;12206824;19;20014;-83
2023/09/18 12:25:11;;;;;;;4.97;1.75;;;;;;;27.59;68.83;99098.38;12186595;19;20007;-84
2023/09/18 12:29:20;;;;;;;8.57;1.92;;;;;;;26.86;70.80;99101.22;12204840;19;20026;-83
2023/09/18 12:33:25;;;;;;;5.38;1.80;;;;;;;26.85;72.65;99095.91;12183235;19;20011;-82
2023/09/18 12:37:27;;;;;;;7.07;1.90;;;;;;;26.75;72.60;99091.72;12203800;19;20007;-83
2023/09/18 12:41:31;;;;;;;6.13;2.33;;;;;;;26.59;74.36;99087.00;12197988;19;20038;-83
2023/09/18 12:45:35;;;;;;;3.55;1.55;;;;;;;26.22;76.90;99095.09;12185631;19;20073;-81
2023/09/18 12:49:39;;;;;;;4.07;1.70;;;;;;;26.01;76.88;99089.03;12203102;19;20067;-83
2023/09/18 12:53:42;;;;;;;4.88;1.88;;;;;;;25.96;77.93;99098.59;12207492;19;20474;-85
2023/09/18 12:57:46;;;;;;;6.68;1.70;;;;;;;25.92;79.93;99094.88;12183569;19;20003;-85
2023/09/18 13:01:48;;;;;;;6.90;2.28;;;;;;;26.09;79.83;99082.34;12203285;19;20473;-84
2023/09/18 13:05:54;;;;;;;5.15;1.75;;;;;;;26.20;78.67;99071.25;12204762;19;20014;-83
2023/09/18 13:10:01;;;;;;;4.55;2.08;;;;;;;26.22;78.21;99066.06;12182045;19;20011;-84
2023/09/18 13:14:05;;;;;;;6.63;2.08;;;;;;;26.30;76.84;99065.81;12204986;19;21438;-85
2023/09/18 13:18:11;;;;;;;4.22;1.60;;;;;;;26.35;76.07;99059.88;12212285;19;20027;-84
2023/09/18 13:22:24;;;;;;;8.23;2.22;;;;;;;26.48;76.84;99065.34;12186334;19;20039;-85
2023/09/18 13:26:26;;;;;;;5.65;2.00;;;;;;;26.77;74.79;99067.53;12204171;19;20011;-85
2023/09/18 13:30:28;;;;;;;4.28;1.90;;;;;;;26.60;74.81;99065.22;12179308;19;20011;-82
2023/09/18 13:34:31;;;;;;;5.93;2.05;;;;;;;26.29;75.68;99069.81;12201980;19;20010;-82
2023/09/18 13:38:32;;;;;;;4.95;1.73;;;;;;;26.22;77.08;99072.50;12216926;19;20031;-80
2023/09/18 13:42:36;;;;;;;5.80;1.70;;;;;;;26.26;75.28;99066.94;12183340;19;20070;-82
2023/09/18 13:46:38;;;;;;;6.40;2.00;;;;;;;26.17;75.34;99069.97;12209630;19;20556;-83
2023/09/18 13:50:40;;;;;;;;;;;;;;;25.96;74.92;99063.91;12206962;19;20013;-82
2023/09/18 13:54:42;;;;;;;4.97;1.80;;;;;;;25.82;75.35;99062.44;12186400;19;19928;-83
2023/09/18 13:58:50;;;;;;;6.20;1.60;;;;;;;25.85;75.72;99061.69;12209961;19;20391;-82
2023/09/18 14:02:52;;;;;;;4.20;1.70;;;;;;;25.62;76.95;99060.72;12201129;19;19999;-83
2023/09/18 14:06:54;;;;;;;8.23;2.03;;;;;;;25.55;77.36;99055.75;12180600;19;20006;-82
2023/09/18 14:10:56;;;;;;;5.28;2.30;;;;;;;25.97;74.73;99051.41;12205051;19;20525;-83
2023/09/18 14:14:59;;;;;;;3.42;1.42;;;;;;;26.19;73.72;99050.66;12206588;19;20010;-82
2023/09/18 14:19:01;;;;;;;9.52;1.73;;;;;;;26.15;73.82;99041.31;12190403;19;20002;-82
2023/09/18 14:23:05;;;;;;;5.38;1.55;;;;;;;25.96;74.01;99030.03;12200006;19;20086;-82
2023/09/18 14:27:07;;;;;;;3.78;1.63;;;;;;;26.08;74.44;99016.56;12201771;19;20489;-82
2023/09/18 14:31:09;;;;;;;1.95;1.20;;;;;;;26.49;72.99;99002.00;12182469;19;21641;-82
2023/09/18 14:35:14;;;;;;;4.05;1.52;;;;;;;27.06;70.09;98991.66;12203661;19;20003;-81
2023/09/18 14:39:16;;;;;;;7.70;1.48;;;;;;;27.28;66.42;98995.69;12186804;19;20009;-82
2023/09/18 14:43:21;;;;;;;4.53;1.40;;;;;;;27.60;65.45;98986.81;12201907;19;20011;-81
2023/09/18 14:47:23;;;;;;;;;;;;;;;27.53;62.25;98998.84;12206195;19;20011;-81
2023/09/18 14:51:25;;;;;;;;;;;;;;;27.14;64.03;98999.06;12190942;19;20418;-83
2023/09/18 14:55:30;;;;;;;4.25;1.58;;;;;;;27.06;65.51;98997.31;12181918;19;19914;-82
2023/09/18 14:59:32;;;;;;;3.38;1.40;;;;;;;26.87;66.59;98988.97;12205234;19;20070;-80
2023/09/18 15:03:44;;;;;;;8.98;1.77;;;;;;;26.31;68.21;98991.19;12186481;19;20341;-85
2023/09/18 15:07:46;;;;;;;6.43;1.77;;;;;;;26.09;68.92;98977.88;12212185;19;20014;-84
2023/09/18 15:11:48;;;;;;;4.70;1.85;;;;;;;26.08;69.29;98964.94;12213260;19;20029;-83
2023/09/18 15:15:50;;;;;;;3.75;1.40;;;;;;;26.10;68.96;98954.09;12191136;19;20014;-83
2023/09/18 15:19:55;;;;;;;4.57;1.92;;;;;;;26.02;69.44;98947.47;12215007;19;20014;-83
2023/09/18 15:23:58;;;;;;;6.70;2.00;;;;;;;26.07;68.84;98957.66;12216974;19;20010;-84
2023/09/18 15:28:00;;;;;;;;;;;;;;;25.91;69.12;98958.59;12196191;19;20006;-81
2023/09/18 15:32:03;;;;;;;3.60;1.50;;;;;;;25.74;68.92;98964.66;12210957;19;19907;-81
2023/09/18 15:36:07;;;;;;;7.93;1.85;;;;;;;25.66;69.82;98955.22;12214940;19;20019;-82
2023/09/18 15:40:10;;;;;;;3.13;1.40;;;;;;;25.50;69.45;98945.22;12197285;19;20035;-84
2023/09/18 15:44:13;;;;;;;5.45;1.88;;;;;;;25.50;70.30;98946.03;12208265;19;20013;-82
2023/09/18 15:48:17;;;;;;;4.60;1.45;;;;;;;25.30;71.28;98952.84;12218300;19;20009;-82
2023/09/18 15:52:20;;;;;;;3.95;1.75;;;;;;;25.23;72.23;98945.88;12183430;19;20018;-83
2023/09/18 15:56:22;;;;;;;6.95;1.65;;;;;;;25.31;72.25;98946.81;12204413;19;20014;-82
2023/09/18 16:00:24;;;;;;;4.20;1.33;;;;;;;25.24;70.68;98950.31;12206242;19;20006;-83
2023/09/18 16:04:26;;;;;;;8.73;1.58;;;;;;;25.11;71.73;98950.78;12182277;19;20018;-83
2023/09/18 16:08:29;;;;;;;5.55;1.85;;;;;;;24.89;72.79;98944.63;12208038;19;20086;-83
2023/09/18 16:12:33;;;;;;;3.60;1.30;;;;;;;24.77;72.85;98942.75;12204726;19;20013;-83
2023/09/18 16:16:35;;;;;;;2.88;1.30;;;;;;;24.65;73.17;98942.03;12221251;19;20405;-83
2023/09/18 16:20:37;;;;;;;5.00;1.98;;;;;;;24.59;74.37;98930.25;12212150;19;20081;-83
2023/09/18 16:24:39;;;;;;;2.67;1.40;;;;;;;24.49;74.37;98930.81;12197993;19;20018;-83
2023/09/18 16:28:42;;;;;;;2.85;1.30;;;;;;;24.38;74.85;98921.22;12232086;19;20010;-82
2023/09/18 16:32:43;;;;;;;3.92;1.65;;;;;;;24.27;76.30;98930.25;12231141;19;20006;-82
2023/09/18 16:36:46;;;;;;;5.22;1.60;;;;;;;24.20;76.53;98923.59;12220998;19;20091;-82
2023/09/18 16:40:47;;;;;;;4.80;2.08;;;;;;;24.16;76.87;98928.31;12251140;19;20007;-82
2023/09/18 16:44:49;;;;;;;2.40;1.27;;;;;;;24.09;76.32;98932.59;12239395;19;20096;-83
2023/09/18 16:48:51;;;;;;;4.53;1.73;;;;;;;24.11;76.56;98944.28;12226796;19;20007;-83
2023/09/18 16:52:57;;;;;;;3.65;1.45;;;;;;;24.02;77.24;98935.19;12229179;19;20258;-83
2023/09/18 16:57:00;;;;;;;4.97;1.27;;;;;;;23.99;76.95;98941.53;12217341;19;20011;-85
2023/09/18 17:01:03;;;;;;;4.27;1.73;;;;;;;23.86;77.97;98937.19;12193264;19;20006;-83
2023/09/18 17:05:06;;;;;;;4.80;1.55;;;;;;;23.73;78.80;98944.03;12224993;19;20255;-84
2023/09/18 17:09:09;;;;;;;5.78;1.75;;;;;;;23.61;78.85;98945.69;12216303;19;20041;-83
2023/09/18 17:13:11;;;;;;;2.97;1.30;;;;;;;23.58;78.67;98957.66;12188270;19;20456;-83
2023/09/18 17:17:12;;;;;;;2.87;1.30;;;;;;;23.53;78.77;98955.09;12208258;19;20018;-82
2023/09/18 17:21:16;;;;;;;3.63;1.60;;;;;;;23.48;78.96;98944.09;12211260;19;20619;-83
2023/09/18 17:25:18;;;;;;;;;;;;;;;23.40;79.19;98942.25;12187023;19;20332;-83
2023/09/18 17:29:20;;;;;;;7.72;1.50;;;;;;;23.39;79.74;98932.19;12209190;19;19903;-82
2023/09/18 17:33:22;;;;;;;1.43;1.13;;;;;;;23.32;80.73;98930.00;12205692;19;20006;-82
2023/09/18 17:37:26;;;;;;;4.32;1.33;;;;;;;23.27;80.58;98924.63;12185209;19;20011;-83
2023/09/18 17:41:28;;;;;;;3.60;1.50;;;;;;;23.28;81.01;98942.28;12203699;19;20454;-83
2023/09/18 17:45:30;;;;;;;4.07;1.35;;;;;;;23.23;81.24;98937.75;12181067;19;20127;-82
2023/09/18 17:49:32;;;;;;;2.70;1.20;;;;;;;23.22;82.20;98932.47;12201477;19;20024;-83
2023/09/18 17:53:34;;;;;;;4.88;1.40;;;;;;;23.11;85.20;98937.75;12206006;19;20011;-83
2023/09/18 17:57:38;;;;;;;4.45;1.50;;;;;;;22.98;87.58;98936.97;12181587;19;20043;-82
2023/09/18 18:01:43;;;;;;;5.82;1.63;;;;;;;22.80;91.03;98958.03;12195719;19;20023;-83
2023/09/18 18:05:46;;;;;;;3.17;1.83;;;;;;;22.64;92.70;98960.75;12197442;19;20090;-82
2023/09/18 18:09:49;;;;;;;4.55;1.85;;;;;;;22.40;97.16;98953.09;12173254;19;20042;-83
2023/09/18 18:13:51;;;;;;;3.30;1.50;;;;;;;22.18;100.00;98943.97;12198455;19;20019;-82
2023/09/18 18:17:53;;;;;;;5.45;1.55;;;;;;;22.03;100.00;98931.41;12196661;19;20017;-82
2023/09/18 18:21:55;;;;;;;4.50;1.45;;;;;;;21.87;100.00;98910.00;12172789;19;20086;-82
2023/09/18 18:25:58;;;;;;;4.63;1.48;;;;;;;21.69;100.00;98941.03;12194586;19;20018;-82
2023/09/18 18:30:01;;;;;;;4.07;1.40;;;;;;;21.44;100.00;98970.09;12195758;19;20395;-81
2023/09/18 18:34:03;;;;;;;4.47;1.90;;;;;;;21.32;100.00;98984.84;12176530;19;20070;-81
2023/09/18 18:38:07;;;;;;;7.45;1.88;;;;;;;21.13;100.00;98971.31;12204970;19;20014;-81
2023/09/18 18:42:09;;;;;;;5.70;1.20;;;;;;;20.91;100.00;98970.47;12207253;19;20010;-82
2023/09/18 18:46:11;;;;;;;4.50;1.80;;;;;;;20.78;100.00;98965.09;12184078;19;20079;-82